This is the latest recevied weather packets stored in our database for station/object KD4EED. If no packets are shown the sender has not sent any weather packets the latest 10 day(s).
| Time | Temp. | Humidity | Pressure | Rain* | Wind** | Luminosity | Snow |
|---|---|---|---|---|---|---|---|
| 1777924309 | 21.11° C | 49% | 1013.3 hPa | - | - | 885 W/m² | - |
| 1777924006 | 21.11° C | 50% | 1013.3 hPa | - | - | 866 W/m² | - |
| 1777923702 | 21.67° C | 50% | 1013.5 hPa | - | - | 851 W/m² | - |
| 1777923399 | 21.11° C | 51% | 1013.3 hPa | - | - | 853 W/m² | - |
| 1777923097 | 21.11° C | 52% | 1013.5 hPa | - | - | 856 W/m² | - |
| 1777922795 | 20.56° C | 53% | 1013.5 hPa | - | - | 878 W/m² | - |
| 1777922493 | 20.56° C | 50% | 1013.6 hPa | - | - | 430 W/m² | - |
| 1777922191 | 21.11° C | 50% | 1013.4 hPa | - | - | 619 W/m² | - |
| 1777921887 | 21.67° C | 49% | 1013.4 hPa | - | - | 518 W/m² | - |
| 1777921583 | 21.11° C | 51% | 1013.4 hPa | - | - | 782 W/m² | - |
| 1777921280 | 21.11° C | 51% | 1013.5 hPa | - | - | 893 W/m² | - |
| 1777920976 | 20.56° C | 52% | 1013.5 hPa | - | - | 885 W/m² | - |
| 1777920673 | 20.56° C | 53% | 1013.6 hPa | - | - | 795 W/m² | - |
| 1777920369 | 20° C | 53% | 1013.6 hPa | - | - | 836 W/m² | - |
| 1777920064 | 20.56° C | 52% | 1013.6 hPa | - | - | 597 W/m² | - |
| 1777919761 | 20° C | 54% | 1013.6 hPa | - | - | 685 W/m² | - |
| 1777919459 | 20° C | 54% | 1013.5 hPa | - | - | 897 W/m² | - |
| 1777919156 | 19.44° C | 54% | 1013.6 hPa | - | - | 639 W/m² | - |
| 1777918853 | 20° C | 53% | 1013.4 hPa | - | - | 746 W/m² | - |
| 1777918550 | 20° C | 54% | 1013.3 hPa | - | - | 669 W/m² | - |
| 1777918248 | 20° C | 52% | 1013.6 hPa | - | - | 590 W/m² | - |
| 1777917947 | 20.56° C | 52% | 1013.6 hPa | - | - | 350 W/m² | - |
| 1777917646 | 20° C | 53% | 1013.6 hPa | - | - | 909 W/m² | - |
| 1777917342 | 19.44° C | 54% | 1013.5 hPa | - | - | 836 W/m² | - |
| 1777917039 | 19.44° C | 55% | 1013.4 hPa | - | - | 696 W/m² | - |
* Rain since midnight (hover to see other rain measurements)
** Current wind speed in m/s (hover to see current wind gust speed)